createdAt,value
2023-04-01T00:00:58.115Z,97373.22
2023-04-01T00:03:28.400Z,97386.41
2023-04-01T00:05:58.051Z,97378.13
2023-04-01T00:08:27.861Z,97380.84
2023-04-01T00:10:56.200Z,97391.66
2023-04-01T00:13:24.897Z,97392.88
2023-04-01T00:15:53.533Z,97398.66
2023-04-01T00:18:21.637Z,97388.38
2023-04-01T00:20:51.372Z,97398.28
2023-04-01T00:23:19.866Z,97388.91
2023-04-01T00:25:49.212Z,97397.03
2023-04-01T00:28:19.675Z,97388.38
2023-04-01T00:30:49.026Z,97388.38
2023-04-01T00:33:17.634Z,97389.03
2023-04-01T00:35:45.738Z,97400.84
2023-04-01T00:38:14.634Z,97407.13
2023-04-01T00:40:45.863Z,97402.53
2023-04-01T00:43:19.393Z,97411.09
2023-04-01T00:45:49.581Z,97412.38
2023-04-01T00:48:21.854Z,97416.88
2023-04-01T00:50:55.866Z,97412.47
2023-04-01T00:53:24.871Z,97417.50
2023-04-01T00:56:01.316Z,97424.22
2023-04-01T00:58:32.747Z,97425.72
2023-04-01T01:01:01.774Z,97426.09
2023-04-01T01:03:30.065Z,97421.59
2023-04-01T01:06:28.592Z,97430.53
2023-04-01T01:09:14.830Z,97427.97
2023-04-01T01:11:45.707Z,97417.97
2023-04-01T01:14:28.402Z,97414.97
2023-04-01T01:17:08.174Z,97417.63
2023-04-01T01:19:51.447Z,97411.72
2023-04-01T01:22:40.370Z,97414.16
2023-04-01T01:25:30.531Z,97413.19
2023-04-01T01:28:19.003Z,97407.72
2023-04-01T01:31:05.053Z,97399.69
2023-04-01T01:33:44.111Z,97399.59
2023-04-01T01:36:15.362Z,97392.00
2023-04-01T01:38:43.683Z,97400.84
2023-04-01T01:41:14.220Z,97393.94
2023-04-01T01:43:45.736Z,97393.44
2023-04-01T01:46:21.546Z,97392.00
2023-04-01T01:48:51.762Z,97392.44
2023-04-01T01:51:22.975Z,97395.19
2023-04-01T01:53:51.338Z,97395.19
2023-04-01T01:56:24.801Z,97395.56
2023-04-01T01:59:06.171Z,97386.91
2023-04-01T02:01:39.534Z,97384.50
2023-04-01T02:04:15.815Z,97380.53
2023-04-01T02:07:01.664Z,97378.06
2023-04-01T02:09:30.981Z,97385.13
2023-04-01T02:12:05.277Z,97385.13
2023-04-01T02:14:55.745Z,97381.25
2023-04-01T02:17:27.619Z,97380.44
2023-04-01T02:20:09.897Z,97373.84
2023-04-01T02:22:42.979Z,97378.78
2023-04-01T02:25:19.216Z,97374.63
2023-04-01T02:27:47.693Z,97364.72
2023-04-01T02:30:17.736Z,97368.06
2023-04-01T02:32:46.188Z,97368.88
2023-04-01T02:35:16.573Z,97366.25
2023-04-01T02:37:46.369Z,97365.78
2023-04-01T02:40:15.839Z,97377.00
2023-04-01T02:42:44.005Z,97371.19
2023-04-01T02:45:12.926Z,97372.91
2023-04-01T02:47:40.944Z,97383.28
2023-04-01T02:50:09.591Z,97385.09
2023-04-01T02:52:37.924Z,97374.25
2023-04-01T02:55:06.711Z,97376.00
2023-04-01T02:57:34.692Z,97371.09
2023-04-01T03:00:04.053Z,97372.16
2023-04-01T03:02:32.030Z,97371.78
2023-04-01T03:04:59.979Z,97379.19
2023-04-01T03:07:27.839Z,97371.63
2023-04-01T03:09:55.774Z,97376.59
2023-04-01T03:12:23.667Z,97380.88
2023-04-01T03:14:53.256Z,97382.50
2023-04-01T03:17:21.423Z,97391.75
2023-04-01T03:19:49.373Z,97391.03
2023-04-01T03:22:17.401Z,97405.09
2023-04-01T03:24:45.265Z,97409.41
2023-04-01T03:27:13.874Z,97409.22
2023-04-01T03:29:41.925Z,97398.47
2023-04-01T03:32:10.497Z,97399.34
2023-04-01T03:34:38.384Z,97411.88
2023-04-01T03:37:06.946Z,97420.25
2023-04-01T03:39:35.960Z,97423.53
2023-04-01T03:42:03.864Z,97423.63
2023-04-01T03:44:33.295Z,97430.53
2023-04-01T03:47:01.587Z,97433.34
2023-04-01T03:49:30.039Z,97433.44
2023-04-01T03:51:57.923Z,97426.97
2023-04-01T03:54:26.152Z,97426.38
2023-04-01T03:56:54.004Z,97423.38
2023-04-01T03:59:22.156Z,97422.94
2023-04-01T04:01:50.408Z,97434.69
2023-04-01T04:04:18.760Z,97423.56
2023-04-01T04:06:47.185Z,97427.53
2023-04-01T04:09:15.734Z,97442.97
2023-04-01T04:11:43.862Z,97445.78
2023-04-01T04:14:11.792Z,97450.81
2023-04-01T04:16:39.800Z,97455.16
2023-04-01T04:19:08.066Z,97460.53
2023-04-01T04:21:35.920Z,97446.22
2023-04-01T04:24:04.001Z,97454.16
2023-04-01T04:26:51.806Z,97456.72
2023-04-01T04:29:19.929Z,97448.50
2023-04-01T04:31:48.121Z,97449.66
2023-04-01T04:34:16.124Z,97449.91
2023-04-01T04:36:44.158Z,97461.97
2023-04-01T04:39:12.136Z,97454.94
2023-04-01T04:41:41.686Z,97458.34
2023-04-01T04:44:09.627Z,97461.09
2023-04-01T04:46:39.080Z,97461.53
2023-04-01T04:49:15.543Z,97459.75
2023-04-01T04:51:43.708Z,97450.75
2023-04-01T04:54:12.191Z,97459.84
2023-04-01T04:57:00.441Z,97463.13
2023-04-01T04:59:31.849Z,97454.56
2023-04-01T05:02:13.900Z,97460.94
2023-04-01T05:04:41.887Z,97453.75
2023-04-01T05:07:12.019Z,97459.81
2023-04-01T05:09:40.137Z,97462.91
2023-04-01T05:12:08.304Z,97456.50
2023-04-01T05:14:54.697Z,97457.75
2023-04-01T05:17:22.979Z,97462.13
2023-04-01T05:19:50.921Z,97464.22
2023-04-01T05:22:19.045Z,97469.03
2023-04-01T05:24:47.000Z,97473.78
2023-04-01T05:27:15.020Z,97478.56
2023-04-01T05:29:44.016Z,97478.28
2023-04-01T05:32:28.619Z,97480.59
2023-04-01T05:34:56.672Z,97476.34
2023-04-01T05:37:24.529Z,97474.84
2023-04-01T05:39:52.354Z,97470.34
2023-04-01T05:42:20.626Z,97479.63
2023-04-01T05:44:48.528Z,97467.78
2023-04-01T05:47:34.768Z,97472.72
2023-04-01T05:50:02.806Z,97479.88
2023-04-01T05:52:30.789Z,97474.59
2023-04-01T05:54:59.774Z,97473.53
2023-04-01T05:57:27.968Z,97480.94
2023-04-01T05:59:56.272Z,97486.16
2023-04-01T06:02:24.749Z,97481.47
2023-04-01T06:05:23.088Z,97479.78
2023-04-01T06:08:02.281Z,97474.06
2023-04-01T06:11:00.608Z,97464.22
2023-04-01T06:13:40.600Z,97468.13
2023-04-01T06:16:32.076Z,97467.41
2023-04-01T06:19:06.303Z,97480.91
2023-04-01T06:21:55.085Z,97479.34
2023-04-01T06:24:32.725Z,97484.81
2023-04-01T06:27:22.310Z,97485.00
2023-04-01T06:30:09.346Z,97491.97
2023-04-01T06:33:02.134Z,97485.78
2023-04-01T06:35:42.037Z,97489.56
2023-04-01T06:38:25.081Z,97491.41
2023-04-01T06:40:57.513Z,97489.53
2023-04-01T06:43:43.477Z,97481.34
2023-04-01T06:46:27.868Z,97477.50
2023-04-01T06:49:40.504Z,97480.31
2023-04-01T06:52:41.416Z,97479.00
2023-04-01T06:55:59.118Z,97485.22
2023-04-01T06:58:53.273Z,97483.00
2023-04-01T07:01:58.403Z,97490.28
2023-04-01T07:04:37.333Z,97491.81
2023-04-01T07:07:15.428Z,97486.03
2023-04-01T07:09:56.633Z,97496.78
2023-04-01T07:12:33.232Z,97490.66
2023-04-01T07:15:32.986Z,97488.34
2023-04-01T07:18:17.290Z,97493.59
2023-04-01T07:20:46.292Z,97496.88
2023-04-01T07:23:40.696Z,97498.09
2023-04-01T07:26:24.160Z,97487.47
2023-04-01T07:29:15.430Z,97496.59
2023-04-01T07:32:18.160Z,97499.78
2023-04-01T07:35:23.188Z,97487.72
2023-04-01T07:38:26.487Z,97499.47
2023-04-01T07:41:15.296Z,97498.44
2023-04-01T07:44:02.542Z,97495.50
2023-04-01T07:46:47.394Z,97496.09
2023-04-01T07:49:34.630Z,97506.03
2023-04-01T07:52:23.737Z,97491.66
2023-04-01T07:55:03.933Z,97505.63
2023-04-01T07:57:50.172Z,97508.34
2023-04-01T08:01:03.537Z,97496.81
2023-04-01T08:04:12.938Z,97490.88
2023-04-01T08:07:18.560Z,97498.84
2023-04-01T08:10:27.263Z,97490.72
2023-04-01T08:12:58.573Z,97490.00
2023-04-01T08:16:17.199Z,97500.19
2023-04-01T08:19:07.650Z,97500.84
2023-04-01T08:21:45.271Z,97496.94
2023-04-01T08:24:47.665Z,97493.81
2023-04-01T08:27:46.658Z,97480.91
2023-04-01T08:30:32.444Z,97505.97
2023-04-01T08:33:28.700Z,97496.28
2023-04-01T08:36:21.897Z,97490.19
2023-04-01T08:39:14.563Z,97488.94
2023-04-01T08:42:00.807Z,97482.44
2023-04-01T08:44:46.662Z,97498.31
2023-04-01T08:47:36.295Z,97491.25
2023-04-01T08:50:24.961Z,97500.47
2023-04-01T08:53:21.678Z,97489.44
2023-04-01T08:56:07.560Z,97485.63
2023-04-01T08:59:11.216Z,97486.00
2023-04-01T09:02:12.634Z,97489.91
2023-04-01T09:05:24.386Z,97483.81
2023-04-01T09:08:13.536Z,97493.59
2023-04-01T09:10:47.884Z,97496.53
2023-04-01T09:13:41.911Z,97488.63
2023-04-01T09:16:36.646Z,97499.00
2023-04-01T09:19:27.421Z,97492.69
2023-04-01T09:22:18.940Z,97476.22
2023-04-01T09:25:05.424Z,97498.78
2023-04-01T09:27:46.032Z,97482.13
2023-04-01T09:30:34.178Z,97495.97
2023-04-01T09:33:14.127Z,97496.25
2023-04-01T09:35:49.836Z,97496.00
2023-04-01T09:38:24.559Z,97502.22
2023-04-01T09:41:16.131Z,97507.09
2023-04-01T09:44:04.353Z,97501.69
2023-04-01T09:47:01.446Z,97493.53
2023-04-01T09:49:41.784Z,97504.09
2023-04-01T09:52:33.946Z,97498.25
2023-04-01T09:55:17.545Z,97497.41
2023-04-01T09:58:10.504Z,97510.13
2023-04-01T10:01:03.420Z,97494.56
2023-04-01T10:04:21.446Z,97505.59
2023-04-01T10:07:02.784Z,97501.47
2023-04-01T10:09:52.119Z,97497.63
2023-04-01T10:12:51.856Z,97489.59
2023-04-01T10:15:25.681Z,97482.06
2023-04-01T10:18:19.835Z,97491.16
2023-04-01T10:21:08.468Z,97489.84
2023-04-01T10:23:50.886Z,97478.09
2023-04-01T10:27:11.733Z,97487.06
2023-04-01T10:30:19.568Z,97484.53
2023-04-01T10:33:00.772Z,97492.75
2023-04-01T10:36:00.598Z,97476.16
2023-04-01T10:38:49.384Z,97486.69
2023-04-01T10:41:45.324Z,97482.81
2023-04-01T10:44:32.994Z,97475.34
2023-04-01T10:47:23.751Z,97474.91
2023-04-01T10:50:13.513Z,97469.88
2023-04-01T10:53:19.183Z,97481.56
2023-04-01T10:56:05.885Z,97480.75
2023-04-01T10:59:13.217Z,97469.03
2023-04-01T11:02:18.216Z,97478.03
2023-04-01T11:05:27.509Z,97460.88
2023-04-01T11:08:07.607Z,97463.16
2023-04-01T11:10:44.873Z,97464.72
2023-04-01T11:13:39.846Z,97450.44
2023-04-01T11:16:20.569Z,97462.44
2023-04-01T11:19:19.288Z,97463.25
2023-04-01T11:22:21.721Z,97465.50
2023-04-01T11:25:29.683Z,97462.88
2023-04-01T11:28:15.958Z,97461.97
2023-04-01T11:30:59.915Z,97446.94
2023-04-01T11:33:58.511Z,97453.97
2023-04-01T11:36:30.976Z,97453.78
2023-04-01T11:39:22.634Z,97455.25
2023-04-01T11:42:16.700Z,97450.72
2023-04-01T11:45:36.834Z,97438.84
2023-04-01T11:48:29.499Z,97437.38
2023-04-01T11:51:00.447Z,97416.56
2023-04-01T11:53:46.062Z,97428.03
2023-04-01T11:56:16.022Z,97425.56
2023-04-01T11:59:11.597Z,97403.56
2023-04-01T12:01:51.020Z,97423.38
2023-04-01T12:04:42.361Z,97413.53
2023-04-01T12:07:18.859Z,97415.50
2023-04-01T12:09:57.346Z,97420.66
2023-04-01T12:12:57.974Z,97421.41
2023-04-01T12:16:05.529Z,97407.63
2023-04-01T12:19:04.403Z,97398.16
2023-04-01T12:21:44.034Z,97410.38
2023-04-01T12:24:27.083Z,97404.88
2023-04-01T12:27:05.118Z,97400.13
2023-04-01T12:29:38.815Z,97399.25
2023-04-01T12:32:47.419Z,97408.31
2023-04-01T12:35:43.392Z,97416.53
2023-04-01T12:38:27.231Z,97418.03
2023-04-01T12:41:08.275Z,97427.56
2023-04-01T12:43:54.515Z,97431.75
2023-04-01T12:46:41.909Z,97450.69
2023-04-01T12:49:34.472Z,97432.72
2023-04-01T12:52:10.546Z,97420.25
2023-04-01T12:54:58.447Z,97423.44
2023-04-01T12:57:57.121Z,97427.97
2023-04-01T13:00:45.005Z,97437.34
2023-04-01T13:03:49.733Z,97473.22
2023-04-01T13:06:31.984Z,97464.19
2023-04-01T13:09:22.002Z,97449.09
2023-04-01T13:12:08.539Z,97451.81
2023-04-01T13:14:36.382Z,97454.94
2023-04-01T13:17:24.267Z,97446.81
2023-04-01T13:20:05.648Z,97450.22
2023-04-01T13:23:07.917Z,97447.59
2023-04-01T13:26:06.876Z,97447.50
2023-04-01T13:28:53.656Z,97449.03
2023-04-01T13:31:36.203Z,97448.03
2023-04-01T13:34:26.944Z,97440.09
2023-04-01T13:37:07.618Z,97452.03
2023-04-01T13:39:39.659Z,97439.25
2023-04-01T13:42:19.454Z,97439.03
2023-04-01T13:45:16.130Z,97443.06
2023-04-01T13:48:32.455Z,97437.66
2023-04-01T13:51:12.906Z,97441.19
2023-04-01T13:53:54.123Z,97433.06
2023-04-01T13:56:34.877Z,97450.19
2023-04-01T13:59:34.916Z,97441.19
2023-04-01T14:02:15.962Z,97447.09
2023-04-01T14:05:26.542Z,97448.31
2023-04-01T14:08:11.834Z,97447.16
2023-04-01T14:10:56.538Z,97458.16
2023-04-01T14:13:40.405Z,97438.84
2023-04-01T14:16:30.560Z,97453.25
2023-04-01T14:19:29.824Z,97470.81
2023-04-01T14:22:37.780Z,97494.28
2023-04-01T14:25:40.339Z,97499.78
2023-04-01T14:28:29.499Z,97494.81
2023-04-01T14:31:01.628Z,97491.53
2023-04-01T14:33:47.681Z,97492.91
2023-04-01T14:36:30.640Z,97488.94
2023-04-01T14:39:20.061Z,97494.34
2023-04-01T14:42:26.117Z,97497.19
2023-04-01T14:45:27.133Z,97508.34
2023-04-01T14:48:07.141Z,97526.69
2023-04-01T14:51:17.428Z,97511.78
2023-04-01T14:53:55.974Z,97508.59
2023-04-01T14:56:39.043Z,97514.41
2023-04-01T14:59:15.916Z,97508.50
2023-04-01T15:01:49.234Z,97506.44
2023-04-01T15:04:39.361Z,97506.25
2023-04-01T15:07:46.264Z,97502.97
2023-04-01T15:10:49.527Z,97502.75
2023-04-01T15:13:20.380Z,97508.72
2023-04-01T15:16:09.760Z,97524.22
2023-04-01T15:19:01.155Z,97521.59
2023-04-01T15:21:41.236Z,97527.50
2023-04-01T15:24:25.742Z,97530.16
2023-04-01T15:27:22.550Z,97526.44
2023-04-01T15:30:01.981Z,97527.56
2023-04-01T15:32:51.972Z,97533.44
2023-04-01T15:35:28.809Z,97522.91
2023-04-01T15:38:03.088Z,97531.09
2023-04-01T15:41:03.752Z,97523.31
2023-04-01T15:43:42.370Z,97517.31
2023-04-01T15:46:20.670Z,97519.94
2023-04-01T15:49:10.957Z,97517.88
2023-04-01T15:51:57.546Z,97533.16
2023-04-01T15:54:52.917Z,97530.88
2023-04-01T15:57:31.058Z,97532.06
2023-04-01T16:00:17.683Z,97540.53
2023-04-01T16:03:08.641Z,97536.22
2023-04-01T16:05:39.043Z,97541.00
2023-04-01T16:08:46.097Z,97562.78
2023-04-01T16:11:57.022Z,97556.53
2023-04-01T16:14:40.502Z,97551.44
2023-04-01T16:17:23.674Z,97556.81
2023-04-01T16:20:19.274Z,97566.22
2023-04-01T16:22:58.314Z,97555.84
2023-04-01T16:25:48.413Z,97571.03
2023-04-01T16:28:18.201Z,97569.03
2023-04-01T16:31:07.974Z,97587.88
2023-04-01T16:33:38.943Z,97584.91
2023-04-01T16:36:25.698Z,97590.41
2023-04-01T16:39:23.927Z,97594.72
2023-04-01T16:42:28.861Z,97599.63
2023-04-01T16:45:09.549Z,97598.56
2023-04-01T16:47:43.617Z,97598.22
2023-04-01T16:50:20.989Z,97598.47
2023-04-01T16:53:03.776Z,97602.31
2023-04-01T16:56:18.016Z,97610.78
2023-04-01T16:59:04.815Z,97606.16
2023-04-01T17:01:46.112Z,97605.56
2023-04-01T17:04:35.986Z,97600.50
2023-04-01T17:07:19.377Z,97607.75
2023-04-01T17:10:12.134Z,97622.72
2023-04-01T17:12:56.021Z,97629.88
2023-04-01T17:16:00.733Z,97617.13
2023-04-01T17:18:43.667Z,97624.16
2023-04-01T17:21:37.261Z,97621.78
2023-04-01T17:24:39.493Z,97622.34
2023-04-01T17:27:28.817Z,97632.19
2023-04-01T17:30:04.110Z,97631.63
2023-04-01T17:33:00.076Z,97635.44
2023-04-01T17:35:34.974Z,97636.88
2023-04-01T17:38:21.428Z,97634.88
2023-04-01T17:41:07.427Z,97639.88
2023-04-01T17:43:52.721Z,97637.78
2023-04-01T17:46:42.407Z,97642.31
2023-04-01T17:49:28.443Z,97639.16
2023-04-01T17:52:21.291Z,97644.22
2023-04-01T17:55:01.040Z,97644.13
2023-04-01T17:57:44.857Z,97640.78
2023-04-01T18:00:25.555Z,97650.63
2023-04-01T18:03:12.733Z,97648.75
2023-04-01T18:06:01.065Z,97649.63
2023-04-01T18:09:15.227Z,97658.44
2023-04-01T18:12:26.748Z,97653.28
2023-04-01T18:15:25.700Z,97661.91
2023-04-01T18:18:12.014Z,97663.94
2023-04-01T18:21:07.961Z,97668.19
2023-04-01T18:24:02.390Z,97663.56
2023-04-01T18:26:34.706Z,97657.56
2023-04-01T18:29:23.234Z,97669.72
2023-04-01T18:31:57.709Z,97681.66
2023-04-01T18:34:50.273Z,97682.19
2023-04-01T18:37:32.899Z,97689.19
2023-04-01T18:40:32.878Z,97681.84
2023-04-01T18:43:17.382Z,97686.91
2023-04-01T18:46:11.056Z,97702.56
2023-04-01T18:49:01.634Z,97706.31
2023-04-01T18:51:40.521Z,97698.03
2023-04-01T18:54:33.327Z,97707.50
2023-04-01T18:57:15.810Z,97703.31
2023-04-01T18:59:54.390Z,97704.88
2023-04-01T19:02:30.695Z,97699.47
2023-04-01T19:05:14.060Z,97706.47
2023-04-01T19:07:45.072Z,97711.75
2023-04-01T19:10:34.756Z,97711.53
2023-04-01T19:13:13.941Z,97713.56
2023-04-01T19:16:14.042Z,97717.41
2023-04-01T19:18:54.842Z,97720.22
2023-04-01T19:21:28.551Z,97727.59
2023-04-01T19:24:02.189Z,97721.13
2023-04-01T19:26:32.794Z,97723.50
2023-04-01T19:29:18.042Z,97721.28
2023-04-01T19:32:13.646Z,97715.97
2023-04-01T19:34:58.958Z,97720.41
2023-04-01T19:37:34.749Z,97719.41
2023-04-01T19:40:11.734Z,97719.53
2023-04-01T19:43:02.866Z,97721.94
2023-04-01T19:45:40.187Z,97717.31
2023-04-01T19:48:13.891Z,97715.09
2023-04-01T19:50:48.199Z,97723.88
2023-04-01T19:53:37.828Z,97731.66
2023-04-01T19:56:24.774Z,97729.09
2023-04-01T19:58:55.572Z,97728.38
2023-04-01T20:01:43.705Z,97739.97
2023-04-01T20:04:31.358Z,97742.66
2023-04-01T20:07:04.898Z,97741.56
2023-04-01T20:09:41.439Z,97741.13
2023-04-01T20:12:25.744Z,97736.28
2023-04-01T20:15:00.049Z,97733.59
2023-04-01T20:17:47.226Z,97735.13
2023-04-01T20:20:35.779Z,97745.31
2023-04-01T20:23:38.875Z,97742.22
2023-04-01T20:26:15.263Z,97745.22
2023-04-01T20:28:46.239Z,97744.53
2023-04-01T20:31:27.493Z,97759.50
2023-04-01T20:34:04.677Z,97760.19
2023-04-01T20:36:52.810Z,97752.38
2023-04-01T20:40:03.900Z,97754.63
2023-04-01T20:43:02.931Z,97753.25
2023-04-01T20:45:56.123Z,97758.59
2023-04-01T20:48:36.143Z,97760.78
2023-04-01T20:51:24.405Z,97761.84
2023-04-01T20:54:04.567Z,97755.50
2023-04-01T20:56:56.620Z,97761.41
2023-04-01T20:59:46.455Z,97766.47
2023-04-01T21:02:32.753Z,97759.72
2023-04-01T21:05:24.478Z,97772.66
2023-04-01T21:07:59.059Z,97771.75
2023-04-01T21:10:26.870Z,97768.22
2023-04-01T21:13:11.489Z,97769.28
2023-04-01T21:15:44.017Z,97773.03
2023-04-01T21:18:21.355Z,97781.75
2023-04-01T21:21:26.965Z,97784.06
2023-04-01T21:24:30.463Z,97786.47
2023-04-01T21:27:07.729Z,97780.69
2023-04-01T21:29:56.633Z,97780.19
2023-04-01T21:32:39.344Z,97790.38
2023-04-01T21:35:38.282Z,97783.13
2023-04-01T21:38:25.781Z,97793.28
2023-04-01T21:40:59.358Z,97785.06
2023-04-01T21:43:36.422Z,97790.53
2023-04-01T21:46:26.369Z,97788.25
2023-04-01T21:49:28.203Z,97794.16
2023-04-01T21:52:17.346Z,97787.63
2023-04-01T21:55:06.910Z,97796.91
2023-04-01T21:57:43.372Z,97800.78
2023-04-01T22:00:23.321Z,97798.66
2023-04-01T22:03:06.098Z,97799.84
2023-04-01T22:05:56.232Z,97795.59
2023-04-01T22:08:37.824Z,97809.75
2023-04-01T22:11:36.113Z,97797.28
2023-04-01T22:14:18.753Z,97801.84
2023-04-01T22:16:58.849Z,97794.25
2023-04-01T22:19:41.341Z,97802.59
2023-04-01T22:22:16.661Z,97806.47
2023-04-01T22:24:50.367Z,97807.25
2023-04-01T22:27:47.686Z,97814.50
2023-04-01T22:30:29.318Z,97813.38
2023-04-01T22:33:09.703Z,97794.97
2023-04-01T22:35:59.278Z,97811.75
2023-04-01T22:38:28.315Z,97809.94
2023-04-01T22:41:10.035Z,97812.47
2023-04-01T22:43:40.828Z,97814.50
2023-04-01T22:46:31.958Z,97816.47
2023-04-01T22:49:17.641Z,97807.69
2023-04-01T22:51:46.105Z,97808.31
2023-04-01T22:54:28.222Z,97809.50
2023-04-01T22:57:04.308Z,97818.84
2023-04-01T22:59:55.790Z,97820.09
2023-04-01T23:02:39.423Z,97810.81
2023-04-01T23:05:14.215Z,97827.16
2023-04-01T23:08:01.381Z,97819.75
2023-04-01T23:10:42.626Z,97822.84
2023-04-01T23:13:19.444Z,97819.38
2023-04-01T23:15:48.898Z,97824.69
2023-04-01T23:18:22.122Z,97827.34
2023-04-01T23:21:27.193Z,97832.31
2023-04-01T23:24:17.558Z,97828.47
2023-04-01T23:27:02.573Z,97834.22
2023-04-01T23:29:31.140Z,97833.03
2023-04-01T23:32:03.006Z,97830.38
2023-04-01T23:34:36.224Z,97832.16
2023-04-01T23:37:17.832Z,97833.31
2023-04-01T23:39:59.588Z,97814.97
2023-04-01T23:42:34.578Z,97830.03
2023-04-01T23:45:06.549Z,97825.59
2023-04-01T23:47:38.224Z,97826.03
2023-04-01T23:50:19.325Z,97835.94
2023-04-01T23:52:52.638Z,97820.81
2023-04-01T23:55:27.929Z,97819.28
2023-04-01T23:58:18.194Z,97823.97
